EHLW Airport Information

Runway Information
Runway 06 Length 9701 ft width 164 ft
Elevation 4 ft Threshold 847 ft Heading 55
Runway 24 Length 9701 ft Width 164 ft
Elevation 4 ft Threshold 1053 ft Heading 235
Runway 09 Length 6559 ft width 164 ft
Elevation 3 ft Threshold 195 ft Heading 91
Runway 27 Length 6559 ft Width 164 ft
Elevation 4 ft Threshold 0 ft Heading 271
Airport Frequencies
Type APP Name RAPCON NOR Frequency 122.1 MHZ
Type DIR Name ARRIVAL Frequency 122.1 MHZ
Type GND Name GND Frequency 28.155 MHZ
Type TWR Name TWR Frequency 120.7 MHZ
Airport Navaids
Type TACAN Name Leeuwarden Frequency 114700 KHZ
Airport Weather Information & NOTAM
ADDS - METARS form results

(1919 UTC 20 April 2021)
Data provider http://aviationweather.gov/metar/data/
 
METAR text: EHLW 201855Z AUTO 36006KT 9999 NCD 07/05 Q1017 BLU
Conditions at: EHLW (LEEUWARDEN RNLAF, NL) observed 1855 UTC 20 April 2021
Temperature: 7.0°C (45°F)
Dewpoint: 5.0°C (41°F) [RH = 87%]
Pressure (altimeter): 30.03 inches Hg (1017.0 mb)
Winds: from the N (360 degrees) at 7 MPH (6 knots; 3.1 m/s)
Visibility: 6 or more miles (10+ km)
Ceiling: at least 12,000 feet AGL
Clouds: sky clear below 12,000 feet AGL
Weather: no significant weather observed at this time

METAR text: EHLW 201825Z AUTO 36006KT 9999 NCD 09/06 Q1017 BLU
Conditions at: EHLW (LEEUWARDEN RNLAF, NL) observed 1825 UTC 20 April 2021
Temperature: 9.0°C (48°F)
Dewpoint: 6.0°C (43°F) [RH = 81%]
Pressure (altimeter): 30.03 inches Hg (1017.0 mb)
Winds: from the N (360 degrees) at 7 MPH (6 knots; 3.1 m/s)
Visibility: 6 or more miles (10+ km)
Ceiling: at least 12,000 feet AGL
Clouds: sky clear below 12,000 feet AGL
Weather: no significant weather observed at this time

Forecast for: EHLW (LEEUWARDEN RNLAF, NL)
Text: TAF EHLW 201640Z 2017/2105 36005KT CAVOK
Forecast period: 1700 to 2200 UTC 20 April 2021
Forecast type: FROM: standard forecast or significant change
Winds: from the N (360 degrees) at 6 MPH (5 knots; 2.6 m/s)
Visibility: 6 or more miles (10+ km)
Ceiling: unknown
Clouds: missing
Weather: NSW  (no significant weather)
Text: BECMG 2022/2024 4000 BR
Forecast period: 2200 UTC 20 April 2021 to 0500 UTC 21 April 2021
Forecast type: BECOMING: Conditions expected to become as follows by 0000 UTC 21 April 2021
Winds: from the N (360 degrees) at 6 MPH (5 knots; 2.6 m/s)
Visibility: 2.49 miles (4.01 km)
Ceiling: unknown
Clouds: missing
Weather: BR  (mist)
Text: PROB30 2100/2105 1200
Forecast period: 0000 to 0500 UTC 21 April 2021
Forecast type: PROBABLE: 30 percent likelihood of the following during this time
Visibility: 0.75 miles (1.21 km)
Ceiling: unknown
Clouds: missing
Weather: no significant weather forecast for this period